createdAt,value
2022-12-31T00:02:20.907Z,0.57
2022-12-31T00:04:49.374Z,0.57
2022-12-31T00:09:58.877Z,0.30
2022-12-31T00:12:27.471Z,0.47
2022-12-31T00:14:56.747Z,0.52
2022-12-31T00:17:26.421Z,0.40
2022-12-31T00:19:54.782Z,0.73
2022-12-31T00:22:23.358Z,0.98
2022-12-31T00:24:55.850Z,0.57
2022-12-31T00:27:24.717Z,0.45
2022-12-31T00:29:53.474Z,0.30
2022-12-31T00:32:21.855Z,0.20
2022-12-31T00:34:51.629Z,0.50
2022-12-31T00:37:19.951Z,0.50
2022-12-31T00:39:48.417Z,0.68
2022-12-31T00:42:16.730Z,0.50
2022-12-31T00:44:45.227Z,0.45
2022-12-31T00:47:13.880Z,0.52
2022-12-31T00:49:42.461Z,0.40
2022-12-31T00:52:14.230Z,0.30
2022-12-31T00:54:42.470Z,0.40
2022-12-31T00:57:11.212Z,0.30
2022-12-31T00:59:39.553Z,0.52
2022-12-31T01:02:07.915Z,0.25
2022-12-31T01:04:36.212Z,0.30
2022-12-31T01:07:04.372Z,0.30
2022-12-31T01:09:34.003Z,0.32
2022-12-31T01:12:02.085Z,0.82
2022-12-31T01:14:32.801Z,0.40
2022-12-31T01:17:01.106Z,0.55
2022-12-31T01:19:31.018Z,0.35
2022-12-31T01:22:02.839Z,0.35
2022-12-31T01:24:31.146Z,0.38
2022-12-31T01:27:00.666Z,0.38
2022-12-31T01:29:29.753Z,0.70
2022-12-31T01:31:57.947Z,0.40
2022-12-31T01:34:26.256Z,0.55
2022-12-31T01:36:54.444Z,0.68
2022-12-31T01:39:22.611Z,0.40
2022-12-31T01:41:50.736Z,0.43
2022-12-31T01:44:56.341Z,0.20
2022-12-31T01:47:36.229Z,0.30
2022-12-31T01:50:11.471Z,0.40
2022-12-31T01:52:42.482Z,0.43
2022-12-31T01:55:17.843Z,0.20
2022-12-31T01:57:49.248Z,0.43
2022-12-31T02:00:19.113Z,0.30
2022-12-31T02:02:47.782Z,0.47
2022-12-31T02:05:21.785Z,0.45
2022-12-31T02:07:51.091Z,0.30
2022-12-31T02:10:19.490Z,0.40
2022-12-31T02:12:48.756Z,0.40
2022-12-31T02:15:18.875Z,0.40
2022-12-31T02:17:55.716Z,0.45
2022-12-31T02:20:43.212Z,0.30
2022-12-31T02:23:34.678Z,0.30
2022-12-31T02:26:36.364Z,0.40
2022-12-31T02:29:28.403Z,0.30
2022-12-31T02:32:00.269Z,0.30
2022-12-31T02:34:33.999Z,0.50
2022-12-31T02:39:34.973Z,0.38
2022-12-31T02:42:04.225Z,0.50
2022-12-31T02:44:33.911Z,0.43
2022-12-31T02:47:19.108Z,0.52
2022-12-31T02:50:02.067Z,0.50
2022-12-31T02:52:39.234Z,0.52
2022-12-31T02:55:16.597Z,0.60
2022-12-31T02:57:51.566Z,0.32
2022-12-31T03:00:37.519Z,0.55
2022-12-31T03:03:09.171Z,0.50
2022-12-31T03:05:41.661Z,0.30
2022-12-31T03:08:09.814Z,0.60
2022-12-31T03:10:38.260Z,0.50
2022-12-31T03:13:05.157Z,0.20
2022-12-31T03:15:45.089Z,0.50
2022-12-31T03:18:18.713Z,0.40
2022-12-31T03:21:08.464Z,0.28
2022-12-31T03:23:51.595Z,0.70
2022-12-31T03:26:21.846Z,0.32
2022-12-31T03:28:50.168Z,0.40
2022-12-31T03:31:23.101Z,0.30
2022-12-31T03:33:57.086Z,0.10
2022-12-31T03:36:29.747Z,0.20
2022-12-31T03:38:59.288Z,0.40
2022-12-31T03:41:27.567Z,0.20
2022-12-31T03:43:56.811Z,0.32
2022-12-31T03:46:24.943Z,0.60
2022-12-31T03:48:54.658Z,0.30
2022-12-31T03:51:24.111Z,0.20
2022-12-31T03:53:52.277Z,0.22
2022-12-31T03:56:20.370Z,0.40
2022-12-31T03:58:48.809Z,0.63
2022-12-31T04:01:17.286Z,0.40
2022-12-31T04:03:45.672Z,0.30
2022-12-31T04:06:15.376Z,0.50
2022-12-31T04:08:43.546Z,0.40
2022-12-31T04:11:14.759Z,0.30
2022-12-31T04:13:47.090Z,0.22
2022-12-31T04:16:15.386Z,0.20
2022-12-31T04:18:43.596Z,0.30
2022-12-31T04:21:11.673Z,0.30
2022-12-31T04:23:41.393Z,0.20
2022-12-31T04:26:09.710Z,0.20
2022-12-31T04:28:37.774Z,0.30
2022-12-31T04:31:06.264Z,0.30
2022-12-31T04:33:34.445Z,0.50
2022-12-31T04:36:02.976Z,0.38
2022-12-31T04:38:37.591Z,0.30
2022-12-31T04:41:19.947Z,0.50
2022-12-31T04:43:52.536Z,0.65
2022-12-31T04:46:23.210Z,0.40
2022-12-31T04:49:00.328Z,0.35
2022-12-31T04:51:39.743Z,0.38
2022-12-31T04:54:08.130Z,0.38
2022-12-31T04:56:37.879Z,0.70
2022-12-31T04:59:07.500Z,0.55
2022-12-31T05:02:06.739Z,0.43
2022-12-31T05:04:35.021Z,0.40
2022-12-31T05:07:09.926Z,0.60
2022-12-31T05:09:38.338Z,0.45
2022-12-31T05:12:08.419Z,0.63
2022-12-31T05:14:40.960Z,0.43
2022-12-31T05:17:26.848Z,0.50
2022-12-31T05:19:58.361Z,0.40
2022-12-31T05:22:44.768Z,0.30
2022-12-31T05:25:13.219Z,0.40
2022-12-31T05:27:46.579Z,0.20
2022-12-31T05:30:15.992Z,0.30
2022-12-31T05:35:48.703Z,0.68
2022-12-31T05:38:17.075Z,0.40
2022-12-31T05:40:45.435Z,0.30
2022-12-31T05:43:14.972Z,0.22
2022-12-31T05:45:43.104Z,0.25
2022-12-31T05:48:11.304Z,0.20
2022-12-31T05:50:39.443Z,0.30
2022-12-31T05:53:07.519Z,0.40
2022-12-31T05:55:35.648Z,0.47
2022-12-31T05:58:03.657Z,0.30
2022-12-31T06:00:38.395Z,0.38
2022-12-31T06:03:06.529Z,0.20
2022-12-31T06:05:34.857Z,0.30
2022-12-31T06:08:02.775Z,0.30
2022-12-31T06:10:30.710Z,0.32
2022-12-31T06:12:58.669Z,0.43
2022-12-31T06:15:26.610Z,0.20
2022-12-31T06:17:55.894Z,0.30
2022-12-31T06:20:23.818Z,0.68
2022-12-31T06:22:51.711Z,0.17
2022-12-31T06:25:20.922Z,0.40
2022-12-31T06:27:49.008Z,0.30
2022-12-31T06:30:17.179Z,0.40
2022-12-31T06:32:46.271Z,0.30
2022-12-31T06:35:15.835Z,0.28
2022-12-31T06:37:43.772Z,0.17
2022-12-31T06:40:15.523Z,0.22
2022-12-31T06:42:44.167Z,0.20
2022-12-31T06:45:14.095Z,0.45
2022-12-31T06:47:42.305Z,0.30
2022-12-31T06:50:10.706Z,0.30
2022-12-31T06:52:40.923Z,0.25
2022-12-31T06:55:12.723Z,0.32
2022-12-31T06:57:42.673Z,0.30
2022-12-31T07:00:12.619Z,0.38
2022-12-31T07:03:03.748Z,0.20
2022-12-31T07:05:46.918Z,0.30
2022-12-31T07:09:36.360Z,0.27
2022-12-31T07:11:48.215Z,0.40
2022-12-31T07:14:30.348Z,0.38
2022-12-31T07:17:08.617Z,0.30
2022-12-31T07:19:51.067Z,0.43
2022-12-31T07:22:22.880Z,0.30
2022-12-31T07:24:53.176Z,0.47
2022-12-31T07:27:38.504Z,0.68
2022-12-31T07:30:12.803Z,0.47
2022-12-31T07:33:01.224Z,0.40
2022-12-31T07:35:39.131Z,0.20
2022-12-31T07:38:15.576Z,0.20
2022-12-31T07:40:59.186Z,0.50
2022-12-31T07:43:34.623Z,0.20
2022-12-31T07:46:14.394Z,0.38
2022-12-31T07:48:42.990Z,0.20
2022-12-31T07:51:12.463Z,0.22
2022-12-31T07:53:40.587Z,0.20
2022-12-31T07:56:11.106Z,0.17
2022-12-31T07:58:55.489Z,0.30
2022-12-31T08:01:34.378Z,0.20
2022-12-31T08:04:08.161Z,0.20
2022-12-31T08:06:45.891Z,0.30
2022-12-31T08:09:27.776Z,0.30
2022-12-31T08:11:59.275Z,0.30
2022-12-31T08:14:29.317Z,0.95
2022-12-31T08:16:58.575Z,0.30
2022-12-31T08:19:30.642Z,0.28
2022-12-31T08:22:14.510Z,0.10
2022-12-31T08:25:09.468Z,0.30
2022-12-31T08:27:45.835Z,0.30
2022-12-31T08:30:16.640Z,0.40
2022-12-31T08:32:51.411Z,0.50
2022-12-31T08:35:32.512Z,0.30
2022-12-31T08:38:08.190Z,0.50
2022-12-31T08:40:45.610Z,0.30
2022-12-31T08:43:31.770Z,0.20
2022-12-31T08:46:01.609Z,0.43
2022-12-31T08:48:40.049Z,0.30
2022-12-31T08:51:14.338Z,0.43
2022-12-31T08:53:42.985Z,0.38
2022-12-31T08:56:21.454Z,0.20
2022-12-31T08:58:56.391Z,0.47
2022-12-31T09:01:30.672Z,0.30
2022-12-31T09:04:08.047Z,0.30
2022-12-31T09:06:42.718Z,0.20
2022-12-31T09:09:18.323Z,0.30
2022-12-31T09:11:54.710Z,0.20
2022-12-31T09:14:42.103Z,0.30
2022-12-31T09:17:31.396Z,0.22
2022-12-31T09:20:00.210Z,0.35
2022-12-31T09:22:28.993Z,0.25
2022-12-31T09:24:57.523Z,0.28
2022-12-31T09:27:32.000Z,0.40
2022-12-31T09:30:05.927Z,0.10
2022-12-31T09:32:43.921Z,0.20
2022-12-31T09:35:22.268Z,0.50
2022-12-31T09:37:53.116Z,0.40
2022-12-31T09:40:46.584Z,0.40
2022-12-31T09:44:01.002Z,1.27
2022-12-31T09:47:33.373Z,0.30
2022-12-31T09:50:36.463Z,0.30
2022-12-31T09:53:36.710Z,0.38
2022-12-31T09:56:11.448Z,0.20
2022-12-31T09:58:46.330Z,0.40
2022-12-31T10:01:27.894Z,0.75
2022-12-31T10:04:25.153Z,0.35
2022-12-31T10:07:05.700Z,0.30
2022-12-31T10:10:06.531Z,0.20
2022-12-31T10:13:09.934Z,0.10
2022-12-31T10:15:55.442Z,0.22
2022-12-31T10:18:39.601Z,0.20
2022-12-31T10:21:27.015Z,0.30
2022-12-31T10:24:18.489Z,0.10
2022-12-31T10:27:07.348Z,0.20
2022-12-31T10:29:46.815Z,0.20
2022-12-31T10:32:26.288Z,0.20
2022-12-31T10:35:10.668Z,0.28
2022-12-31T10:37:48.426Z,0.25
2022-12-31T10:40:27.932Z,0.50
2022-12-31T10:43:50.811Z,0.20
2022-12-31T10:46:57.520Z,0.10
2022-12-31T10:50:02.411Z,0.20
2022-12-31T10:53:14.210Z,0.10
2022-12-31T10:56:22.662Z,0.10
2022-12-31T11:06:46.109Z,0.40
2022-12-31T11:09:51.635Z,0.22
2022-12-31T11:12:40.280Z,0.20
2022-12-31T11:15:38.572Z,0.20
2022-12-31T11:18:18.863Z,0.25
2022-12-31T11:21:12.893Z,0.15
2022-12-31T11:23:49.718Z,0.38
2022-12-31T11:26:33.078Z,0.38
2022-12-31T11:29:15.559Z,0.32
2022-12-31T11:32:05.637Z,0.20
2022-12-31T11:35:09.954Z,0.25
2022-12-31T11:37:46.428Z,0.43
2022-12-31T11:40:43.230Z,0.38
2022-12-31T11:43:37.873Z,0.65
2022-12-31T11:46:41.524Z,0.65
2022-12-31T11:49:42.410Z,0.77
2022-12-31T11:52:36.705Z,0.43
2022-12-31T11:58:03.841Z,0.90
2022-12-31T12:00:34.080Z,0.73
2022-12-31T12:03:06.154Z,1.23
2022-12-31T12:05:36.258Z,0.93
2022-12-31T12:08:05.243Z,1.23
2022-12-31T12:10:38.125Z,2.25
2022-12-31T12:13:15.776Z,2.35
2022-12-31T12:16:02.103Z,1.30
2022-12-31T12:18:36.197Z,1.35
2022-12-31T12:21:09.944Z,0.95
2022-12-31T12:23:38.746Z,1.10
2022-12-31T12:26:28.566Z,1.23
2022-12-31T12:28:56.692Z,1.08
2022-12-31T12:31:27.033Z,1.20
2022-12-31T12:33:55.145Z,1.20
2022-12-31T12:36:23.461Z,1.20
2022-12-31T12:39:02.892Z,1.45
2022-12-31T12:41:32.752Z,1.45
2022-12-31T12:44:06.477Z,1.10
2022-12-31T12:49:06.573Z,1.90
2022-12-31T12:51:59.315Z,1.60
2022-12-31T12:54:39.888Z,1.63
2022-12-31T12:57:19.798Z,0.90
2022-12-31T13:00:04.406Z,1.42
2022-12-31T13:02:55.762Z,1.10
2022-12-31T13:05:36.673Z,1.00
2022-12-31T13:08:15.432Z,0.93
2022-12-31T13:10:59.349Z,1.50
2022-12-31T13:16:09.025Z,1.33
2022-12-31T13:18:49.976Z,0.60
2022-12-31T13:21:32.416Z,1.10
2022-12-31T13:24:07.891Z,1.15
2022-12-31T13:26:45.059Z,1.30
2022-12-31T13:29:19.130Z,1.10
2022-12-31T13:31:49.086Z,1.05
2022-12-31T13:34:23.593Z,0.98
2022-12-31T13:36:54.248Z,1.05
2022-12-31T14:30:00.775Z,2.38
2022-12-31T14:32:59.995Z,1.60
2022-12-31T14:35:54.404Z,1.33
2022-12-31T14:38:34.936Z,2.20
2022-12-31T14:41:18.478Z,1.50
2022-12-31T14:43:56.004Z,1.80
2022-12-31T14:46:31.199Z,2.05
2022-12-31T14:49:16.329Z,1.52
2022-12-31T14:51:44.919Z,1.83
2022-12-31T14:54:30.651Z,1.58
2022-12-31T14:56:58.654Z,2.30
2022-12-31T14:59:32.192Z,5.82
2022-12-31T15:02:02.582Z,15.05
2022-12-31T15:04:35.695Z,11.48
2022-12-31T15:07:17.852Z,4.07
2022-12-31T15:09:58.891Z,3.78
2022-12-31T15:13:03.944Z,2.70
2022-12-31T15:15:56.270Z,3.13
2022-12-31T15:18:38.676Z,3.97
2022-12-31T15:49:24.987Z,5.22
2022-12-31T15:52:04.524Z,6.50
2022-12-31T15:54:43.753Z,5.60
2022-12-31T15:57:19.361Z,5.20
2022-12-31T15:59:50.895Z,5.40
2022-12-31T16:02:27.840Z,4.22
2022-12-31T16:04:57.700Z,5.07
2022-12-31T16:07:34.503Z,4.63
2022-12-31T16:10:07.634Z,5.25
2022-12-31T16:12:44.572Z,5.25
2022-12-31T16:15:32.812Z,6.68
2022-12-31T16:18:17.133Z,6.63
2022-12-31T16:20:54.884Z,5.85
2022-12-31T16:23:26.517Z,6.18
2022-12-31T16:26:01.694Z,6.45
2022-12-31T16:28:36.717Z,5.63
2022-12-31T16:31:17.279Z,5.88
2022-12-31T16:33:48.726Z,6.18
2022-12-31T16:36:22.631Z,5.13
2022-12-31T16:38:53.394Z,6.75
2022-12-31T16:41:24.820Z,9.55
2022-12-31T16:44:32.329Z,11.85
2022-12-31T16:47:04.021Z,14.65
2022-12-31T16:50:06.289Z,14.65
2022-12-31T16:52:39.811Z,13.52
2022-12-31T16:55:12.010Z,12.15
2022-12-31T16:57:58.705Z,7.65
2022-12-31T17:00:28.853Z,7.10
2022-12-31T17:03:10.011Z,6.95
2022-12-31T17:05:57.613Z,6.15
2022-12-31T17:08:30.766Z,5.47
2022-12-31T17:11:04.604Z,5.35
2022-12-31T17:16:10.437Z,5.75
2022-12-31T17:18:39.907Z,8.80
2022-12-31T17:21:24.928Z,7.32
2022-12-31T17:23:56.656Z,6.97
2022-12-31T17:26:29.456Z,7.07
2022-12-31T17:29:02.235Z,7.47
2022-12-31T17:31:35.274Z,7.70
2022-12-31T17:34:24.488Z,6.15
2022-12-31T17:37:18.716Z,9.45
2022-12-31T17:42:25.765Z,8.75
2022-12-31T17:44:58.138Z,8.02
2022-12-31T17:47:38.163Z,5.72
2022-12-31T17:50:21.302Z,6.93
2022-12-31T17:52:50.896Z,6.05
2022-12-31T17:55:19.971Z,6.10
2022-12-31T17:57:52.980Z,10.68
2022-12-31T18:00:23.451Z,10.23
2022-12-31T18:02:51.772Z,10.65
2022-12-31T18:05:22.155Z,8.35
2022-12-31T18:07:52.115Z,7.03
2022-12-31T18:10:23.460Z,19.55
2022-12-31T18:12:52.090Z,11.00
2022-12-31T18:15:22.749Z,6.22
2022-12-31T18:17:51.327Z,8.30
2022-12-31T18:20:20.019Z,7.20
2022-12-31T18:22:48.445Z,10.40
2022-12-31T18:25:20.752Z,6.60
2022-12-31T18:27:49.510Z,6.50
2022-12-31T18:30:18.132Z,9.18
2022-12-31T18:32:47.431Z,9.00
2022-12-31T18:35:48.619Z,9.27
2022-12-31T18:38:12.313Z,5.70
2022-12-31T18:40:44.640Z,5.00
2022-12-31T18:43:58.320Z,6.13
2022-12-31T18:46:27.152Z,9.30
2022-12-31T18:48:55.382Z,18.98
2022-12-31T18:51:31.709Z,24.20
2022-12-31T18:54:00.712Z,28.85
2022-12-31T18:56:31.437Z,16.20
2022-12-31T18:59:00.310Z,17.10
2022-12-31T19:01:31.464Z,17.10
2022-12-31T19:04:05.262Z,12.23
2022-12-31T19:06:34.235Z,11.73
2022-12-31T19:12:07.989Z,8.52
2022-12-31T19:14:37.130Z,8.93
2022-12-31T19:19:34.920Z,10.75
2022-12-31T19:22:05.647Z,11.65
2022-12-31T19:24:35.215Z,9.65
2022-12-31T19:27:03.738Z,7.88
2022-12-31T19:29:35.428Z,8.38
2022-12-31T19:32:08.173Z,9.65
2022-12-31T19:34:36.261Z,8.90
2022-12-31T19:37:05.065Z,8.98
2022-12-31T19:42:04.271Z,9.25
2022-12-31T19:44:33.649Z,9.32
2022-12-31T19:47:01.638Z,6.88
2022-12-31T19:49:29.597Z,7.18
2022-12-31T19:51:57.602Z,7.45
2022-12-31T19:54:25.588Z,6.43
2022-12-31T19:56:53.670Z,5.10
2022-12-31T19:59:21.688Z,5.32
2022-12-31T20:01:51.122Z,6.38
2022-12-31T20:04:19.377Z,5.03
2022-12-31T20:06:47.429Z,5.28
2022-12-31T20:09:15.512Z,5.53
2022-12-31T20:11:43.489Z,5.28
2022-12-31T20:14:12.024Z,4.32
2022-12-31T20:16:40.087Z,4.57
2022-12-31T20:19:10.906Z,4.22
2022-12-31T20:21:38.923Z,3.70
2022-12-31T20:24:07.332Z,4.68
2022-12-31T20:26:35.445Z,4.88
2022-12-31T20:29:03.409Z,4.78
2022-12-31T20:31:31.461Z,7.13
2022-12-31T20:33:59.428Z,8.43
2022-12-31T20:36:28.796Z,5.22
2022-12-31T20:38:56.709Z,5.03
2022-12-31T20:41:25.052Z,5.68
2022-12-31T20:43:53.189Z,5.50
2022-12-31T20:46:24.903Z,5.45
2022-12-31T20:48:54.816Z,7.15
2022-12-31T20:51:24.198Z,10.85
2022-12-31T20:53:56.055Z,29.90
2022-12-31T20:56:25.337Z,7.97
2022-12-31T20:58:53.343Z,7.32
2022-12-31T21:01:24.238Z,7.32
2022-12-31T21:04:04.774Z,7.07
2022-12-31T21:06:35.919Z,6.72
2022-12-31T21:09:12.119Z,6.85
2022-12-31T21:11:58.230Z,5.75
2022-12-31T21:14:26.371Z,4.25
2022-12-31T21:16:54.570Z,4.25
2022-12-31T21:19:23.457Z,3.45
2022-12-31T21:21:52.111Z,3.35
2022-12-31T21:24:24.481Z,6.28
2022-12-31T21:26:52.927Z,16.13
2022-12-31T21:30:18.791Z,17.30
2022-12-31T21:32:52.392Z,10.00
2022-12-31T21:39:16.379Z,21.13
2022-12-31T21:41:53.490Z,9.35
2022-12-31T21:44:22.628Z,11.88
2022-12-31T21:47:16.339Z,33.30
2022-12-31T21:49:39.089Z,18.33
2022-12-31T21:52:20.943Z,2.42
2022-12-31T21:55:06.422Z,8.27
2022-12-31T21:57:59.105Z,15.05
2022-12-31T22:00:43.063Z,5.05
2022-12-31T22:03:26.967Z,4.97
2022-12-31T22:06:00.515Z,33.33
2022-12-31T22:08:30.258Z,11.05
2022-12-31T22:10:58.715Z,2.35
2022-12-31T22:13:28.667Z,10.45
2022-12-31T22:16:05.850Z,8.68
2022-12-31T22:18:35.955Z,8.52
2022-12-31T22:21:10.799Z,20.42
2022-12-31T22:23:44.506Z,2.30
2022-12-31T22:26:15.277Z,4.65
2022-12-31T22:28:45.974Z,2.10
2022-12-31T22:31:16.996Z,3.83
2022-12-31T22:33:47.291Z,2.05
2022-12-31T22:36:39.487Z,2.13
2022-12-31T22:39:09.058Z,1.80
2022-12-31T22:41:42.484Z,3.20
2022-12-31T22:44:13.169Z,1.88
2022-12-31T22:46:42.065Z,1.60
2022-12-31T22:49:14.492Z,1.90
2022-12-31T22:51:57.136Z,1.95
2022-12-31T22:54:26.983Z,1.60
2022-12-31T22:56:54.990Z,2.20
2022-12-31T22:59:31.467Z,2.10
2022-12-31T23:01:59.593Z,1.65
2022-12-31T23:05:16.140Z,1.83
2022-12-31T23:07:44.551Z,1.95
2022-12-31T23:10:29.768Z,2.80
2022-12-31T23:12:57.738Z,2.05
2022-12-31T23:15:44.440Z,3.92
2022-12-31T23:18:29.592Z,5.68
2022-12-31T23:21:14.874Z,6.93
2022-12-31T23:23:42.832Z,6.70
2022-12-31T23:26:10.777Z,65.30
2022-12-31T23:28:38.775Z,6.10
2022-12-31T23:31:08.872Z,4.38
2022-12-31T23:33:36.884Z,5.68
2022-12-31T23:36:05.922Z,5.30
2022-12-31T23:38:33.923Z,6.65
2022-12-31T23:41:01.887Z,4.75
2022-12-31T23:43:29.809Z,6.80
2022-12-31T23:45:57.776Z,4.93
2022-12-31T23:48:28.449Z,5.30
2022-12-31T23:50:57.726Z,4.28
2022-12-31T23:53:27.287Z,5.85
2022-12-31T23:55:55.867Z,5.05
2022-12-31T23:58:27.990Z,4.68
